Historyczne dane pomiarowe

Dodano dane terminowe – wersja testowa.

Dane z okresu 1951-2019

Wersja bazy: 1.34 [2019-03-16, lista zmian], aktualizacja planowana na 2019-04-15

Dane meteo z obszaru Polski uzyskane na podstawie danych udostępnionych przez Instytut Meteorologii i Gospodarki Wodnej – Państwowy Instytut Badawczy.

 

Wybierz Datę:    

       

TemperaturaWilgotnośćWiatrCiśnienieOpadyŚniegCzas trwania zjawisk
 Stacja t tx tn tng RH VA  wxwx mslp ppp RRR   cm mm wxwxwxwxwxwxwx
1987-08-14 13.8 17.4 9.9 8.8 88.3- 8.0 1.7---- 0.7------------
1987-08-13 14.0 21.0 7.6 7.5 71.3- 2.7 1.0---- 0.0------------
1987-08-12 12.9 18.2 6.1 5.5 78.0- 4.7 1.0---- 0.0------------
1987-08-11 12.1 16.0 10.8 10.0 91.3- 7.0 1.7---- 3.7------------
1987-08-10 14.0 19.0 12.9 13.1 91.3- 7.7 1.0---- 9.0------------
1987-08-09 16.7 23.6 10.8 9.5 69.5- 5.3 3.0---- 4.1------------
1987-08-08 14.7 21.5 7.6 5.3 73.5- 6.0 1.7---- 0.0------------
1987-08-07 11.6 18.8 5.2 4.2 76.5- 3.3 1.7---- 0.0------------
1987-08-06 10.9 13.1 7.9 7.0 83.5- 7.7 3.0---- 5.8------------
1987-08-05 12.0 17.0 6.4 5.7 81.3- 5.0 4.3---- 0.4------------
1987-08-04 13.4 17.3 11.1 12.0 84.3- 6.7 3.0---- 7.6------------
1987-08-03 14.2 19.2 8.1 7.2 77.8- 6.7 1.0---- 0.3------------
1987-08-02 13.8 18.0 10.2 10.0 84.3- 6.7 2.3---- 2.3------------
1987-08-01 14.9 16.7 12.8 12.3 91.3- 8.0 3.0---- 10.0------------
1987-07-31 15.9 21.4 12.8 13.7 86.5- 7.3 2.3---- 3.8------------
1987-07-30 17.7 25.2 10.9 8.0 73.5- 6.3 2.0---- 0.8------------
1987-07-29 14.3 18.2 10.1 9.3 81.5- 6.7 1.3---- 0.2------------
1987-07-28 13.3 15.4 11.9 12.0 86.0- 8.0 3.7---- 0.0------------
1987-07-27 12.7 17.6 7.7 7.0 74.3- 5.7 4.3---- 7.8------------
1987-07-26 13.5 17.8 10.7 9.6 75.3- 4.7 2.3---- 0.0------------
1987-07-25 17.0 22.0 15.6 14.1 78.8- 5.3 1.7---- 0.0------------
1987-07-24 20.0 24.8 13.7 12.4 75.3- 3.0 1.3---- 0.0------------
1987-07-23 19.7 25.8 12.2 11.2 81.5- 5.3 0.0---- 0.5------------
1987-07-22 18.7 21.7 15.3 15.1 82.8- 4.7 0.3---- 0.0------------
1987-07-21 18.4 24.8 12.3 10.6 82.3- 4.7 1.3---- 23.0------------
1987-07-20 18.8 22.9 14.8 15.0 85.0- 3.7 0.7---- 0.0------------
1987-07-19 18.8 24.4 15.7 16.3 85.5- 7.3 2.7---- 13.2------------
1987-07-18 21.5 26.6 16.6 15.6 83.3- 6.3 0.0---- 0.0------------
1987-07-17 21.1 29.6 16.4 15.0 71.8- 5.7 4.3---- 1.2------------
1987-07-16 19.8 27.0 12.3 10.6 64.5- 4.7 2.3---- 0.0------------
1987-07-15 17.6 23.5 9.9 7.7 67.5- 3.0 1.0---- 0.0------------
1987-07-14 15.7 21.4 7.6 6.2 69.3- 1.7 0.3---- 0.0------------
1987-07-13 15.3 20.0 10.9 9.2 78.5- 6.3 1.0---- 0.0------------
1987-07-12 20.0 25.8 14.4 12.6 78.3- 6.7 0.7---- 2.5------------
1987-07-11 16.4 23.2 8.9 7.5 75.0- 7.7 3.7---- 0.0------------
1987-07-10 14.2 18.5 8.8 7.5 70.0- 5.0 2.0---- 0.0------------
1987-07-09 16.4 19.8 14.9 10.1 82.8- 8.0 0.3---- 0.0------------
1987-07-08 20.6 28.5 15.1 11.5 76.0- 5.7 0.0---- 23.2------------
1987-07-07 20.9 28.4 11.9 8.5 59.3- 0.0 0.3---- 0.0------------
1987-07-06 18.8 25.0 8.5 7.0 65.0- 0.0 0.3---- 0.0------------
1987-07-05 16.4 21.5 10.3 9.5 63.0- 4.3 1.3---- 0.0------------
1987-07-04 18.6 23.4 11.3 9.8 67.5- 2.7 1.3---- 0.0------------
1987-07-03 19.2 23.4 13.0 12.0 70.5- 1.3 0.0---- 0.0------------
1987-07-02 19.4 23.0 15.2 15.0 69.0- 4.3 0.3---- 0.0------------
1987-07-01 23.1 30.0 19.0 15.6 81.5- 2.7 0.3---- 6.1------------
1987-06-30 24.2 29.3 17.5 15.0 73.3- 0.0 1.3---- 0.0------------
1987-06-29 20.9 26.4 13.3 12.6 83.3- 4.0 0.3---- 0.0------------
1987-06-28 17.9 22.8 13.3 12.0 81.0- 6.0 2.0---- 0.0------------
1987-06-27 17.5 22.0 14.9 14.6 71.8- 5.0 0.3---- 0.0------------
1987-06-26 16.2 23.0 9.7 8.5 77.8- 6.7 2.0---- 0.8------------
1987-06-25 13.8 17.6 10.5 10.6 85.5- 6.3 1.7---- 0.0------------
1987-06-24 14.3 19.0 12.1 11.6 82.8- 7.3 0.7---- 10.5------------
1987-06-23 16.2 19.4 10.9 9.0 76.0- 6.3 2.0---- 0.5------------
1987-06-22 14.6 17.5 12.5 12.9 88.8- 8.0 1.3---- 0.0------------
1987-06-21 16.8 23.4 9.9 8.0 78.0- 4.7 2.0---- 9.7------------
1987-06-20 14.7 20.5 9.5 7.0 74.3- 5.7 2.3---- 0.7------------
1987-06-19 12.6 18.5 7.9 7.5 74.3- 6.7 3.0---- 0.0------------
1987-06-18 11.1 14.9 6.1 4.0 79.8- 5.7 3.0---- 1.4------------
1987-06-17 12.7 16.0 9.8 9.3 62.3- 4.3 4.3---- 0.0------------
1987-06-16 11.7 25.0 9.1 10.0 84.5- 8.0 3.7---- 0.3------------
488.3 ms

 

Źródłem pochodzenia danych jest Instytut Meteorologii i Gospodarki Wodnej – Państwowy Instytut Badawczy. Dane Instytutu Meteorologii i Gospodarki Wodnej – Państwowego Instytutu Badawczego zostały przetworzone.

Dane źródłowe można odnaleźć na stronie https://dane.imgw.pl